createdAt,value
2023-03-08T00:03:02.852Z,63.53
2023-03-08T00:06:12.199Z,62.41
2023-03-08T00:09:18.584Z,61.34
2023-03-08T00:12:23.109Z,59.11
2023-03-08T00:15:29.435Z,58.62
2023-03-08T00:18:34.117Z,58.86
2023-03-08T00:21:40.368Z,58.57
2023-03-08T00:24:46.773Z,59.50
2023-03-08T00:27:51.368Z,59.73
2023-03-08T00:31:02.156Z,60.10
2023-03-08T00:34:08.545Z,60.60
2023-03-08T00:37:13.140Z,61.02
2023-03-08T00:40:19.674Z,61.16
2023-03-08T00:43:26.484Z,61.91
2023-03-08T00:46:32.803Z,62.96
2023-03-08T00:49:37.362Z,63.94
2023-03-08T00:52:43.686Z,64.53
2023-03-08T00:55:54.996Z,62.09
2023-03-08T00:59:01.294Z,62.27
2023-03-08T01:02:05.925Z,59.08
2023-03-08T01:05:13.767Z,58.30
2023-03-08T01:08:21.197Z,59.09
2023-03-08T01:11:28.916Z,59.00
2023-03-08T01:14:35.219Z,59.65
2023-03-08T01:17:39.918Z,59.86
2023-03-08T01:20:46.352Z,59.51
2023-03-08T01:23:53.689Z,60.60
2023-03-08T01:27:01.035Z,60.93
2023-03-08T01:30:08.990Z,61.22
2023-03-08T01:33:15.306Z,61.75
2023-03-08T01:36:23.563Z,61.37
2023-03-08T01:39:30.036Z,61.54
2023-03-08T01:42:38.635Z,61.97
2023-03-08T01:46:06.913Z,61.33
2023-03-08T01:49:16.387Z,61.55
2023-03-08T01:52:27.560Z,61.61
2023-03-08T01:55:35.319Z,61.58
2023-03-08T01:58:43.104Z,61.54
2023-03-08T02:01:50.261Z,61.92
2023-03-08T02:04:56.675Z,61.78
2023-03-08T02:08:01.358Z,61.64
2023-03-08T02:11:08.340Z,61.45
2023-03-08T02:14:14.805Z,61.72
2023-03-08T02:17:21.347Z,61.70
2023-03-08T02:20:32.182Z,61.73
2023-03-08T02:23:38.564Z,61.42
2023-03-08T02:26:43.256Z,61.46
2023-03-08T02:29:49.725Z,61.54
2023-03-08T02:32:56.205Z,61.40
2023-03-08T02:36:05.189Z,61.38
2023-03-08T02:39:11.581Z,61.01
2023-03-08T02:42:16.108Z,61.11
2023-03-08T02:45:22.459Z,61.00
2023-03-08T02:48:27.015Z,60.87
2023-03-08T02:51:33.331Z,61.05
2023-03-08T02:54:38.018Z,60.67
2023-03-08T02:57:44.368Z,61.30
2023-03-08T03:00:48.894Z,61.05
2023-03-08T03:03:56.813Z,60.93
2023-03-08T03:07:03.892Z,60.66
2023-03-08T03:10:13.844Z,60.24
2023-03-08T03:13:20.712Z,60.83
2023-03-08T03:16:28.051Z,60.64
2023-03-08T03:19:34.421Z,60.63
2023-03-08T03:22:39.097Z,60.58
2023-03-08T03:25:45.431Z,60.94
2023-03-08T03:28:50.233Z,60.77
2023-03-08T03:31:56.512Z,60.80
2023-03-08T03:35:03.070Z,60.52
2023-03-08T03:38:09.436Z,60.46
2023-03-08T03:41:14.871Z,60.24
2023-03-08T03:44:21.189Z,60.36
2023-03-08T03:47:25.753Z,59.98
2023-03-08T03:50:32.537Z,60.39
2023-03-08T03:53:39.236Z,60.38
2023-03-08T03:56:45.488Z,59.98
2023-03-08T03:59:51.768Z,59.79
2023-03-08T04:02:58.096Z,60.02
2023-03-08T04:06:08.274Z,60.07
2023-03-08T04:09:17.683Z,59.98
2023-03-08T04:12:24.044Z,59.78
2023-03-08T04:15:29.399Z,59.44
2023-03-08T04:18:36.209Z,59.43
2023-03-08T04:21:42.634Z,59.85
2023-03-08T04:24:47.310Z,59.93
2023-03-08T04:27:53.675Z,59.57
2023-03-08T04:30:58.202Z,59.75
2023-03-08T04:34:05.420Z,59.73
2023-03-08T04:37:12.086Z,60.18
2023-03-08T04:40:19.081Z,60.18
2023-03-08T04:43:25.518Z,60.58
2023-03-08T04:46:30.243Z,60.46
2023-03-08T04:49:36.644Z,60.35
2023-03-08T04:52:41.598Z,60.85
2023-03-08T04:55:47.947Z,60.67
2023-03-08T04:58:52.449Z,60.65
2023-03-08T05:01:58.817Z,60.75
2023-03-08T05:05:04.477Z,60.69
2023-03-08T05:08:10.897Z,60.64
2023-03-08T05:11:17.855Z,60.99
2023-03-08T05:14:24.229Z,61.06
2023-03-08T05:17:29.230Z,61.00
2023-03-08T05:20:35.617Z,60.91
2023-03-08T05:23:41.949Z,60.92
2023-03-08T05:26:46.565Z,60.92
2023-03-08T05:29:54.597Z,60.82
2023-03-08T05:33:00.931Z,60.92
2023-03-08T05:36:06.227Z,60.84
2023-03-08T05:39:13.636Z,60.58
2023-03-08T05:42:20.917Z,60.81
2023-03-08T05:45:27.483Z,60.53
2023-03-08T05:48:34.823Z,60.68
2023-03-08T05:51:41.331Z,60.69
2023-03-08T05:54:47.751Z,60.54
2023-03-08T05:57:52.422Z,60.41
2023-03-08T06:00:58.748Z,60.32
2023-03-08T06:04:03.312Z,60.37
2023-03-08T06:07:09.753Z,60.37
2023-03-08T06:10:15.992Z,60.38
2023-03-08T06:13:22.353Z,60.48
2023-03-08T06:16:27.082Z,60.18
2023-03-08T06:19:33.633Z,60.14
2023-03-08T06:22:40.059Z,60.35
2023-03-08T06:25:46.234Z,60.25
2023-03-08T06:28:52.588Z,60.29
2023-03-08T06:31:57.147Z,60.10
2023-03-08T06:35:03.464Z,60.27
2023-03-08T06:38:08.151Z,60.11
2023-03-08T06:41:15.884Z,60.09
2023-03-08T06:44:22.537Z,59.83
2023-03-08T06:47:31.157Z,59.75
2023-03-08T06:50:38.133Z,59.64
2023-03-08T06:53:44.465Z,59.66
2023-03-08T06:56:49.439Z,59.65
2023-03-08T06:59:55.774Z,59.53
2023-03-08T07:03:00.608Z,59.55
2023-03-08T07:06:09.810Z,59.63
2023-03-08T07:09:16.348Z,58.73
2023-03-08T07:12:22.686Z,58.58
2023-03-08T07:15:27.683Z,58.76
2023-03-08T07:18:34.528Z,58.97
2023-03-08T07:21:44.506Z,58.07
2023-03-08T07:24:51.764Z,58.08
2023-03-08T07:27:59.813Z,57.94
2023-03-08T07:31:06.495Z,58.12
2023-03-08T07:34:13.392Z,57.90
2023-03-08T07:37:19.678Z,57.83
2023-03-08T07:40:26.064Z,57.87
2023-03-08T07:43:32.378Z,56.90
2023-03-08T07:46:37.060Z,56.61
2023-03-08T07:49:43.385Z,56.71
2023-03-08T07:52:47.944Z,56.43
2023-03-08T07:55:54.373Z,56.33
2023-03-08T07:59:00.757Z,56.72
2023-03-08T08:02:05.743Z,56.34
2023-03-08T08:05:12.648Z,56.35
2023-03-08T08:08:19.032Z,56.16
2023-03-08T08:11:24.029Z,56.83
2023-03-08T08:14:30.368Z,56.52
2023-03-08T08:17:35.021Z,55.98
2023-03-08T08:20:41.725Z,55.94
2023-03-08T08:23:48.684Z,55.47
2023-03-08T08:26:55.141Z,55.75
2023-03-08T08:30:01.894Z,55.88
2023-03-08T08:33:08.156Z,54.88
2023-03-08T08:36:17.424Z,55.76
2023-03-08T08:39:23.839Z,55.60
2023-03-08T08:42:28.420Z,55.29
2023-03-08T08:45:34.737Z,55.32
2023-03-08T08:48:39.312Z,55.14
2023-03-08T08:51:45.609Z,55.71
2023-03-08T08:54:50.327Z,55.49
2023-03-08T08:57:56.675Z,55.38
2023-03-08T09:01:01.190Z,55.12
2023-03-08T09:04:07.547Z,55.75
2023-03-08T09:10:43.607Z,54.63
2023-03-08T09:13:50.301Z,54.55
2023-03-08T09:16:56.857Z,54.41
2023-03-08T09:20:06.162Z,53.51
2023-03-08T09:23:12.779Z,52.88
2023-03-08T09:26:19.763Z,52.46
2023-03-08T09:29:26.356Z,52.71
2023-03-08T09:32:34.169Z,52.43
2023-03-08T09:35:40.904Z,51.69
2023-03-08T09:38:48.432Z,51.71
2023-03-08T09:41:57.538Z,51.61
2023-03-08T09:45:28.384Z,51.18
2023-03-08T09:48:35.903Z,51.50
2023-03-08T09:51:47.511Z,51.18
2023-03-08T09:54:55.170Z,51.88
2023-03-08T09:58:04.269Z,51.37
2023-03-08T10:01:24.318Z,50.67
2023-03-08T10:04:47.082Z,49.87
2023-03-08T10:08:00.438Z,50.86
2023-03-08T10:11:16.871Z,49.14
2023-03-08T10:14:27.815Z,49.08
2023-03-08T10:17:45.090Z,49.42
2023-03-08T10:20:51.777Z,48.36
2023-03-08T10:24:03.942Z,48.67
2023-03-08T10:27:21.925Z,48.39
2023-03-08T10:30:30.268Z,48.48
2023-03-08T10:33:38.033Z,48.70
2023-03-08T10:36:53.839Z,48.83
2023-03-08T10:40:05.575Z,48.64
2023-03-08T10:43:26.579Z,49.70
2023-03-08T10:46:33.994Z,48.59
2023-03-08T10:49:40.578Z,48.87
2023-03-08T10:52:48.876Z,49.05
2023-03-08T10:55:56.425Z,48.36
2023-03-08T10:59:04.345Z,49.27
2023-03-08T11:02:23.001Z,48.65
2023-03-08T11:05:29.963Z,48.92
2023-03-08T11:08:39.416Z,46.73
2023-03-08T11:11:46.255Z,46.88
2023-03-08T11:14:53.285Z,47.23
2023-03-08T11:18:05.884Z,45.68
2023-03-08T11:21:22.229Z,46.04
2023-03-08T11:24:42.368Z,45.69
2023-03-08T11:28:09.255Z,45.52
2023-03-08T11:31:27.604Z,44.15
2023-03-08T11:34:50.642Z,44.60
2023-03-08T11:38:03.903Z,44.72
2023-03-08T11:41:22.512Z,45.06
2023-03-08T11:44:52.278Z,45.26
2023-03-08T11:48:22.572Z,45.10
2023-03-08T11:51:36.527Z,46.25
2023-03-08T11:54:54.314Z,46.53
2023-03-08T11:58:06.542Z,46.41
2023-03-08T12:01:19.517Z,45.78
2023-03-08T12:04:38.859Z,45.76
2023-03-08T12:07:50.352Z,46.04
2023-03-08T12:11:02.037Z,44.85
2023-03-08T12:14:17.722Z,44.19
2023-03-08T12:17:27.189Z,43.52
2023-03-08T12:20:40.172Z,44.50
2023-03-08T12:23:57.330Z,44.39
2023-03-08T12:27:11.334Z,43.36
2023-03-08T12:30:27.757Z,43.26
2023-03-08T12:33:35.250Z,42.62
2023-03-08T12:36:43.687Z,41.76
2023-03-08T12:39:59.234Z,42.64
2023-03-08T12:43:11.532Z,41.68
2023-03-08T12:46:18.258Z,41.69
2023-03-08T12:49:31.576Z,41.46
2023-03-08T12:52:38.218Z,41.11
2023-03-08T12:55:45.030Z,41.34
2023-03-08T12:58:57.129Z,40.18
2023-03-08T13:02:26.878Z,40.82
2023-03-08T13:05:36.590Z,40.14
2023-03-08T13:08:50.422Z,39.71
2023-03-08T13:12:21.937Z,40.59
2023-03-08T13:15:29.449Z,40.04
2023-03-08T13:18:37.119Z,40.67
2023-03-08T13:21:52.229Z,41.43
2023-03-08T13:25:03.774Z,41.21
2023-03-08T13:28:13.842Z,40.56
2023-03-08T13:31:23.319Z,40.88
2023-03-08T13:34:32.603Z,41.34
2023-03-08T13:37:39.923Z,41.33
2023-03-08T13:40:54.563Z,41.05
2023-03-08T13:44:05.720Z,40.92
2023-03-08T13:47:25.837Z,41.05
2023-03-08T13:50:35.364Z,41.59
2023-03-08T13:53:44.418Z,41.10
2023-03-08T13:56:55.820Z,41.26
2023-03-08T14:00:22.084Z,40.74
2023-03-08T14:03:31.879Z,41.20
2023-03-08T14:06:41.652Z,40.79
2023-03-08T14:09:48.477Z,40.99
2023-03-08T14:12:55.310Z,41.29
2023-03-08T14:16:04.467Z,40.84
2023-03-08T14:19:25.445Z,41.21
2023-03-08T14:22:39.780Z,40.76
2023-03-08T14:25:57.346Z,40.99
2023-03-08T14:29:21.882Z,40.99
2023-03-08T14:32:36.165Z,41.47
2023-03-08T14:35:46.714Z,41.80
2023-03-08T14:38:53.758Z,41.37
2023-03-08T14:42:09.808Z,41.21
2023-03-08T14:45:22.298Z,41.93
2023-03-08T14:48:33.658Z,42.31
2023-03-08T14:51:43.621Z,42.49
2023-03-08T14:54:50.369Z,42.23
2023-03-08T14:58:00.373Z,41.56
2023-03-08T15:01:07.710Z,41.35
2023-03-08T15:04:19.803Z,41.51
2023-03-08T15:07:32.942Z,41.87
2023-03-08T15:10:41.312Z,42.11
2023-03-08T15:13:48.435Z,42.14
2023-03-08T15:16:56.140Z,43.00
2023-03-08T15:20:02.840Z,43.05
2023-03-08T15:23:10.610Z,43.42
2023-03-08T15:26:21.096Z,43.81
2023-03-08T15:29:32.302Z,44.36
2023-03-08T15:32:39.312Z,44.43
2023-03-08T15:35:46.891Z,45.02
2023-03-08T15:38:54.059Z,45.49
2023-03-08T15:42:01.289Z,45.52
2023-03-08T15:45:09.179Z,46.30
2023-03-08T15:48:18.870Z,47.37
2023-03-08T15:51:30.337Z,47.97
2023-03-08T15:54:37.179Z,48.82
2023-03-08T15:57:44.424Z,48.91
2023-03-08T16:00:52.359Z,49.08
2023-03-08T16:03:59.937Z,49.58
2023-03-08T16:07:06.868Z,50.82
2023-03-08T16:10:16.490Z,51.90
2023-03-08T16:13:23.551Z,52.46
2023-03-08T16:16:44.377Z,52.60
2023-03-08T16:19:52.033Z,53.12
2023-03-08T16:22:58.840Z,53.49
2023-03-08T16:26:15.221Z,53.69
2023-03-08T16:29:22.558Z,54.12
2023-03-08T16:32:29.503Z,54.72
2023-03-08T16:35:36.271Z,55.18
2023-03-08T16:38:43.113Z,56.55
2023-03-08T16:41:50.145Z,55.72
2023-03-08T16:44:58.060Z,56.35
2023-03-08T16:48:05.564Z,56.43
2023-03-08T16:51:17.471Z,56.73
2023-03-08T16:54:24.692Z,57.01
2023-03-08T16:57:31.455Z,56.95
2023-03-08T17:00:38.211Z,57.23
2023-03-08T17:03:45.439Z,57.72
2023-03-08T17:06:52.310Z,57.84
2023-03-08T17:09:59.077Z,57.95
2023-03-08T17:13:05.868Z,58.00
2023-03-08T17:16:14.436Z,57.90
2023-03-08T17:19:21.362Z,57.96
2023-03-08T17:22:28.338Z,58.06
2023-03-08T17:25:38.571Z,58.54
2023-03-08T17:28:46.306Z,59.85
2023-03-08T17:31:53.641Z,60.90
2023-03-08T17:35:00.358Z,61.23
2023-03-08T17:38:07.201Z,61.29
2023-03-08T17:41:15.434Z,61.45
2023-03-08T17:44:22.391Z,61.67
2023-03-08T17:47:29.345Z,61.64
2023-03-08T17:50:36.713Z,61.99
2023-03-08T17:53:45.515Z,63.84
2023-03-08T17:56:52.292Z,65.38
2023-03-08T17:59:59.376Z,64.70
2023-03-08T18:03:06.065Z,62.14
2023-03-08T18:06:23.605Z,58.79
2023-03-08T18:09:32.206Z,57.86
2023-03-08T18:12:39.011Z,58.57
2023-03-08T18:15:45.838Z,59.20
2023-03-08T18:18:52.829Z,60.06
2023-03-08T18:21:59.966Z,60.34
2023-03-08T18:25:06.918Z,60.94
2023-03-08T18:28:13.730Z,61.55
2023-03-08T18:31:23.540Z,61.66
2023-03-08T18:34:30.695Z,61.95
2023-03-08T18:37:37.768Z,63.50
2023-03-08T18:40:45.017Z,65.49
2023-03-08T18:43:52.424Z,64.91
2023-03-08T18:46:59.208Z,63.13
2023-03-08T18:50:11.241Z,62.56
2023-03-08T18:53:18.392Z,61.37
2023-03-08T18:56:26.160Z,59.07
2023-03-08T18:59:33.521Z,58.88
2023-03-08T19:02:40.353Z,59.39
2023-03-08T19:05:47.290Z,59.60
2023-03-08T19:08:54.693Z,60.26
2023-03-08T19:12:03.175Z,60.84
2023-03-08T19:15:11.868Z,60.96
2023-03-08T19:18:18.661Z,61.14
2023-03-08T19:21:27.059Z,61.25
2023-03-08T19:24:34.481Z,62.64
2023-03-08T19:27:41.377Z,62.34
2023-03-08T19:30:48.357Z,61.46
2023-03-08T19:33:55.497Z,59.63
2023-03-08T19:37:03.264Z,58.99
2023-03-08T19:40:12.216Z,59.34
2023-03-08T19:43:19.168Z,59.73
2023-03-08T19:46:26.156Z,59.84
2023-03-08T19:49:34.349Z,60.30
2023-03-08T19:52:41.241Z,60.66
2023-03-08T19:55:53.659Z,60.85
2023-03-08T19:59:00.770Z,60.82
2023-03-08T20:02:09.409Z,61.00
2023-03-08T20:05:18.817Z,61.14
2023-03-08T20:08:26.716Z,61.39
2023-03-08T20:11:33.743Z,61.64
2023-03-08T20:14:40.790Z,61.66
2023-03-08T20:17:48.390Z,61.61
2023-03-08T20:20:57.378Z,61.76
2023-03-08T20:24:04.336Z,61.82
2023-03-08T20:27:11.242Z,61.83
2023-03-08T20:30:18.709Z,61.75
2023-03-08T20:33:25.433Z,61.86
2023-03-08T20:36:32.316Z,61.85
2023-03-08T20:39:39.146Z,63.05
2023-03-08T20:42:46.055Z,64.23
2023-03-08T20:45:52.874Z,63.62
2023-03-08T20:48:59.869Z,62.70
2023-03-08T20:52:07.216Z,61.67
2023-03-08T20:55:14.110Z,59.53
2023-03-08T20:58:20.941Z,58.68
2023-03-08T21:01:30.164Z,59.09
2023-03-08T21:04:37.081Z,59.80
2023-03-08T21:07:44.047Z,60.43
2023-03-08T21:10:50.813Z,60.57
2023-03-08T21:13:58.017Z,61.14
2023-03-08T21:17:04.713Z,61.52
2023-03-08T21:20:13.461Z,63.35
2023-03-08T21:23:23.363Z,64.85
2023-03-08T21:26:31.102Z,63.83
2023-03-08T21:29:37.858Z,62.32
2023-03-08T21:32:44.730Z,61.77
2023-03-08T21:35:51.826Z,61.60
2023-03-08T21:38:59.774Z,61.30
2023-03-08T21:42:07.024Z,59.58
2023-03-08T21:45:15.168Z,59.07
2023-03-08T21:48:22.032Z,59.87
2023-03-08T21:51:28.869Z,60.73
2023-03-08T21:54:35.759Z,61.23
2023-03-08T21:57:42.665Z,61.74
2023-03-08T22:00:49.531Z,63.47
2023-03-08T22:03:56.942Z,65.44
2023-03-08T22:07:03.728Z,64.86
2023-03-08T22:10:13.809Z,63.90
2023-03-08T22:13:20.669Z,63.08
2023-03-08T22:16:28.292Z,62.47
2023-03-08T22:19:35.189Z,61.80
2023-03-08T22:22:44.148Z,61.69
2023-03-08T22:25:51.124Z,60.94
2023-03-08T22:28:58.429Z,59.83
2023-03-08T22:32:05.598Z,59.35
2023-03-08T22:35:13.611Z,60.99
2023-03-08T22:38:21.120Z,61.24
2023-03-08T22:41:29.141Z,63.47
2023-03-08T22:44:36.004Z,65.22
2023-03-08T22:47:42.928Z,64.55
2023-03-08T22:50:56.309Z,63.63
2023-03-08T22:54:09.102Z,63.20
2023-03-08T22:57:16.925Z,62.77
2023-03-08T23:00:24.022Z,62.28
2023-03-08T23:03:31.593Z,61.93
2023-03-08T23:06:38.502Z,61.58
2023-03-08T23:09:45.364Z,61.17
2023-03-08T23:12:52.268Z,60.80
2023-03-08T23:15:59.030Z,59.66
2023-03-08T23:19:06.555Z,59.63
2023-03-08T23:22:13.615Z,60.52
2023-03-08T23:25:20.930Z,61.83
2023-03-08T23:28:28.096Z,64.86
2023-03-08T23:31:36.701Z,64.84
2023-03-08T23:34:43.572Z,64.55
2023-03-08T23:37:50.359Z,65.12
2023-03-08T23:40:57.060Z,64.64
2023-03-08T23:44:04.210Z,64.59
2023-03-08T23:47:11.118Z,64.65
2023-03-08T23:50:18.199Z,64.88
2023-03-08T23:53:25.073Z,65.02
2023-03-08T23:56:38.260Z,65.41
2023-03-08T23:59:45.293Z,65.66
